sensor_id;sensor_type;location;lat;lon;timestamp;temperature;humidity
780;DHT22;373;49.342;8.146;2023-11-21T00:02:22;9.50;99.90
780;DHT22;373;49.342;8.146;2023-11-21T00:04:49;9.40;99.90
780;DHT22;373;49.342;8.146;2023-11-21T00:07:16;9.40;99.90
780;DHT22;373;49.342;8.146;2023-11-21T00:09:44;9.40;99.90
780;DHT22;373;49.342;8.146;2023-11-21T00:12:12;9.40;99.90
780;DHT22;373;49.342;8.146;2023-11-21T00:14:39;9.40;99.90
780;DHT22;373;49.342;8.146;2023-11-21T00:17:07;9.40;99.90
780;DHT22;373;49.342;8.146;2023-11-21T00:19:34;9.70;99.90
780;DHT22;373;49.342;8.146;2023-11-21T00:22:01;9.70;99.90
780;DHT22;373;49.342;8.146;2023-11-21T00:24:28;9.60;99.90
780;DHT22;373;49.342;8.146;2023-11-21T00:26:57;9.70;99.90
780;DHT22;373;49.342;8.146;2023-11-21T00:29:24;9.60;99.90
780;DHT22;373;49.342;8.146;2023-11-21T00:31:51;9.70;99.90
780;DHT22;373;49.342;8.146;2023-11-21T00:34:19;9.70;99.90
780;DHT22;373;49.342;8.146;2023-11-21T00:36:46;9.60;99.90
780;DHT22;373;49.342;8.146;2023-11-21T00:39:13;9.60;99.90
780;DHT22;373;49.342;8.146;2023-11-21T00:41:41;9.70;99.90
780;DHT22;373;49.342;8.146;2023-11-21T00:44:11;9.70;99.90
780;DHT22;373;49.342;8.146;2023-11-21T00:46:38;9.80;99.90
780;DHT22;373;49.342;8.146;2023-11-21T00:49:06;9.80;99.90
780;DHT22;373;49.342;8.146;2023-11-21T00:51:33;9.70;99.90
780;DHT22;373;49.342;8.146;2023-11-21T00:54:01;9.80;99.90
780;DHT22;373;49.342;8.146;2023-11-21T00:56:28;10.00;99.90
780;DHT22;373;49.342;8.146;2023-11-21T00:58:56;9.80;99.90
780;DHT22;373;49.342;8.146;2023-11-21T01:01:25;9.90;99.90
780;DHT22;373;49.342;8.146;2023-11-21T01:03:52;9.90;99.90
780;DHT22;373;49.342;8.146;2023-11-21T01:06:19;10.00;99.90
780;DHT22;373;49.342;8.146;2023-11-21T01:08:48;10.00;99.90
780;DHT22;373;49.342;8.146;2023-11-21T01:11:15;10.10;99.90
780;DHT22;373;49.342;8.146;2023-11-21T01:13:42;10.10;99.90
780;DHT22;373;49.342;8.146;2023-11-21T01:16:10;10.10;99.90
780;DHT22;373;49.342;8.146;2023-11-21T06:11:14;11.40;99.90
780;DHT22;373;49.342;8.146;2023-11-21T06:13:53;11.60;99.90
780;DHT22;373;49.342;8.146;2023-11-21T06:16:21;11.90;99.90
780;DHT22;373;49.342;8.146;2023-11-21T06:18:51;12.00;99.90
780;DHT22;373;49.342;8.146;2023-11-21T06:21:18;12.30;99.90
780;DHT22;373;49.342;8.146;2023-11-21T06:23:46;12.40;40.90
780;DHT22;373;49.342;8.146;2023-11-21T06:26:13;12.40;22.30
780;DHT22;373;49.342;8.146;2023-11-21T06:28:40;12.40;36.50
780;DHT22;373;49.342;8.146;2023-11-21T06:31:08;12.30;1.00
780;DHT22;373;49.342;8.146;2023-11-21T06:33:36;12.30;9.60
780;DHT22;373;49.342;8.146;2023-11-21T06:36:04;12.20;38.10
780;DHT22;373;49.342;8.146;2023-11-21T06:38:32;12.20;25.10
780;DHT22;373;49.342;8.146;2023-11-21T06:41:00;12.10;76.90
780;DHT22;373;49.342;8.146;2023-11-21T06:43:30;11.90;69.30
780;DHT22;373;49.342;8.146;2023-11-21T06:45:57;11.60;99.90
780;DHT22;373;49.342;8.146;2023-11-21T06:48:25;11.80;99.90
780;DHT22;373;49.342;8.146;2023-11-21T06:50:52;12.00;90.00
780;DHT22;373;49.342;8.146;2023-11-21T06:53:19;12.00;24.40
780;DHT22;373;49.342;8.146;2023-11-21T06:55:46;12.00;8.40
780;DHT22;373;49.342;8.146;2023-11-21T06:58:15;11.80;81.90
780;DHT22;373;49.342;8.146;2023-11-21T07:00:42;11.60;99.90
780;DHT22;373;49.342;8.146;2023-11-21T07:03:12;11.40;84.10
780;DHT22;373;49.342;8.146;2023-11-21T07:05:39;11.30;99.90
780;DHT22;373;49.342;8.146;2023-11-21T07:08:06;11.00;99.90
780;DHT22;373;49.342;8.146;2023-11-21T07:10:33;10.80;99.90
780;DHT22;373;49.342;8.146;2023-11-21T07:13:02;10.80;99.90
780;DHT22;373;49.342;8.146;2023-11-21T07:15:30;10.80;99.90
780;DHT22;373;49.342;8.146;2023-11-21T07:17:58;10.70;99.90
780;DHT22;373;49.342;8.146;2023-11-21T07:20:25;10.70;99.90
780;DHT22;373;49.342;8.146;2023-11-21T07:22:53;10.80;99.90
780;DHT22;373;49.342;8.146;2023-11-21T07:25:31;10.70;99.90
780;DHT22;373;49.342;8.146;2023-11-21T07:28:20;10.90;99.90
780;DHT22;373;49.342;8.146;2023-11-21T07:31:01;11.20;99.90
780;DHT22;373;49.342;8.146;2023-11-21T07:36:05;11.20;99.90
780;DHT22;373;49.342;8.146;2023-11-21T07:41:44;11.30;99.90
780;DHT22;373;49.342;8.146;2023-11-21T07:44:41;11.10;99.90
780;DHT22;373;49.342;8.146;2023-11-21T07:48:10;11.20;99.90
780;DHT22;373;49.342;8.146;2023-11-21T07:50:42;11.00;99.90
780;DHT22;373;49.342;8.146;2023-11-21T07:53:43;10.90;99.90
780;DHT22;373;49.342;8.146;2023-11-21T07:56:21;10.90;99.90
780;DHT22;373;49.342;8.146;2023-11-21T07:58:49;10.80;99.90
780;DHT22;373;49.342;8.146;2023-11-21T08:01:20;11.00;99.90
780;DHT22;373;49.342;8.146;2023-11-21T08:04:13;11.30;99.90
780;DHT22;373;49.342;8.146;2023-11-21T08:07:05;11.50;99.90
780;DHT22;373;49.342;8.146;2023-11-21T08:15:37;11.70;99.90
780;DHT22;373;49.342;8.146;2023-11-21T08:22:16;11.50;99.90
780;DHT22;373;49.342;8.146;2023-11-21T08:24:44;11.40;69.00
780;DHT22;373;49.342;8.146;2023-11-21T08:27:12;11.50;99.90
780;DHT22;373;49.342;8.146;2023-11-21T08:29:41;11.30;99.90
780;DHT22;373;49.342;8.146;2023-11-21T08:32:08;11.30;99.90
780;DHT22;373;49.342;8.146;2023-11-21T08:34:35;11.10;99.90
780;DHT22;373;49.342;8.146;2023-11-21T08:37:03;11.10;99.90
780;DHT22;373;49.342;8.146;2023-11-21T08:39:32;11.20;99.90
780;DHT22;373;49.342;8.146;2023-11-21T08:41:59;11.40;99.90
780;DHT22;373;49.342;8.146;2023-11-21T08:44:26;11.20;99.90
780;DHT22;373;49.342;8.146;2023-11-21T08:46:53;11.10;99.90
780;DHT22;373;49.342;8.146;2023-11-21T08:49:20;11.10;99.90
780;DHT22;373;49.342;8.146;2023-11-21T08:51:47;11.00;99.90
780;DHT22;373;49.342;8.146;2023-11-21T08:54:14;10.90;99.90
780;DHT22;373;49.342;8.146;2023-11-21T08:56:43;11.10;99.90
780;DHT22;373;49.342;8.146;2023-11-21T08:59:10;11.10;99.90
780;DHT22;373;49.342;8.146;2023-11-21T09:01:40;11.40;99.90
780;DHT22;373;49.342;8.146;2023-11-21T09:04:07;11.40;99.90
780;DHT22;373;49.342;8.146;2023-11-21T09:06:35;11.30;81.40
780;DHT22;373;49.342;8.146;2023-11-21T09:09:02;11.20;57.60
780;DHT22;373;49.342;8.146;2023-11-21T09:11:30;11.20;99.90
780;DHT22;373;49.342;8.146;2023-11-21T09:14:00;11.20;99.90
780;DHT22;373;49.342;8.146;2023-11-21T09:16:29;11.30;99.90
780;DHT22;373;49.342;8.146;2023-11-21T09:18:56;11.20;97.50
780;DHT22;373;49.342;8.146;2023-11-21T09:21:23;11.20;99.90
780;DHT22;373;49.342;8.146;2023-11-21T09:23:51;11.10;99.90
780;DHT22;373;49.342;8.146;2023-11-21T09:26:18;11.00;99.90
780;DHT22;373;49.342;8.146;2023-11-21T09:28:45;10.90;99.90
780;DHT22;373;49.342;8.146;2023-11-21T09:31:14;10.90;99.90
780;DHT22;373;49.342;8.146;2023-11-21T09:33:42;10.90;99.90
780;DHT22;373;49.342;8.146;2023-11-21T09:36:11;10.90;99.90
780;DHT22;373;49.342;8.146;2023-11-21T09:38:40;11.00;99.90
780;DHT22;373;49.342;8.146;2023-11-21T09:41:14;11.10;99.90
780;DHT22;373;49.342;8.146;2023-11-21T09:43:44;10.80;99.90
780;DHT22;373;49.342;8.146;2023-11-21T09:46:14;10.80;99.90
780;DHT22;373;49.342;8.146;2023-11-21T09:48:49;10.80;99.90
780;DHT22;373;49.342;8.146;2023-11-21T09:51:19;10.60;99.90
780;DHT22;373;49.342;8.146;2023-11-21T09:53:50;10.70;99.90
780;DHT22;373;49.342;8.146;2023-11-21T09:56:18;10.90;99.90
780;DHT22;373;49.342;8.146;2023-11-21T09:58:51;10.90;99.90
780;DHT22;373;49.342;8.146;2023-11-21T10:01:21;11.10;99.90
780;DHT22;373;49.342;8.146;2023-11-21T10:03:49;11.00;99.90
780;DHT22;373;49.342;8.146;2023-11-21T10:06:18;10.90;99.90
780;DHT22;373;49.342;8.146;2023-11-21T10:08:46;11.00;99.90
780;DHT22;373;49.342;8.146;2023-11-21T10:11:15;11.00;99.90
780;DHT22;373;49.342;8.146;2023-11-21T10:13:45;10.90;99.90
780;DHT22;373;49.342;8.146;2023-11-21T10:16:15;11.20;99.90
780;DHT22;373;49.342;8.146;2023-11-21T10:18:44;11.20;99.90
780;DHT22;373;49.342;8.146;2023-11-21T10:21:11;11.20;99.90
780;DHT22;373;49.342;8.146;2023-11-21T10:23:39;11.30;99.90
780;DHT22;373;49.342;8.146;2023-11-21T10:26:06;11.40;99.90
780;DHT22;373;49.342;8.146;2023-11-21T10:28:36;11.40;99.90
780;DHT22;373;49.342;8.146;2023-11-21T10:31:06;11.30;99.90
780;DHT22;373;49.342;8.146;2023-11-21T10:33:35;11.40;99.90
780;DHT22;373;49.342;8.146;2023-11-21T10:36:03;11.20;99.90
780;DHT22;373;49.342;8.146;2023-11-21T10:38:33;11.20;99.90
780;DHT22;373;49.342;8.146;2023-11-21T10:41:11;11.20;99.90
780;DHT22;373;49.342;8.146;2023-11-21T10:43:41;11.10;99.90
780;DHT22;373;49.342;8.146;2023-11-21T10:46:10;11.10;99.90
780;DHT22;373;49.342;8.146;2023-11-21T10:48:37;11.00;99.90
780;DHT22;373;49.342;8.146;2023-11-21T10:51:08;11.10;99.90
780;DHT22;373;49.342;8.146;2023-11-21T10:53:38;11.00;99.90
780;DHT22;373;49.342;8.146;2023-11-21T10:56:08;11.00;99.90
780;DHT22;373;49.342;8.146;2023-11-21T10:58:39;10.90;99.90
780;DHT22;373;49.342;8.146;2023-11-21T11:01:07;11.00;99.90
780;DHT22;373;49.342;8.146;2023-11-21T11:03:37;10.90;99.90
780;DHT22;373;49.342;8.146;2023-11-21T11:06:07;10.90;99.90
780;DHT22;373;49.342;8.146;2023-11-21T11:08:37;11.10;99.90
780;DHT22;373;49.342;8.146;2023-11-21T11:11:05;10.90;99.90
780;DHT22;373;49.342;8.146;2023-11-21T11:13:32;11.10;99.90
780;DHT22;373;49.342;8.146;2023-11-21T11:16:00;11.10;99.90
780;DHT22;373;49.342;8.146;2023-11-21T11:18:28;11.00;99.90
780;DHT22;373;49.342;8.146;2023-11-21T11:21:00;10.90;99.90
780;DHT22;373;49.342;8.146;2023-11-21T11:23:40;10.80;99.90
780;DHT22;373;49.342;8.146;2023-11-21T11:26:20;10.70;99.90
780;DHT22;373;49.342;8.146;2023-11-21T11:28:57;10.70;99.90
780;DHT22;373;49.342;8.146;2023-11-21T11:31:33;10.70;99.90
780;DHT22;373;49.342;8.146;2023-11-21T11:34:11;10.70;99.90
780;DHT22;373;49.342;8.146;2023-11-21T11:36:47;10.70;99.90
780;DHT22;373;49.342;8.146;2023-11-21T11:39:29;10.90;99.90
780;DHT22;373;49.342;8.146;2023-11-21T11:41:57;10.90;99.90
780;DHT22;373;49.342;8.146;2023-11-21T11:44:48;10.90;99.90
780;DHT22;373;49.342;8.146;2023-11-21T11:47:19;11.00;99.90
780;DHT22;373;49.342;8.146;2023-11-21T11:50:07;10.90;99.90
780;DHT22;373;49.342;8.146;2023-11-21T11:52:40;11.20;99.90
780;DHT22;373;49.342;8.146;2023-11-21T11:55:11;11.30;99.90
780;DHT22;373;49.342;8.146;2023-11-21T11:57:40;11.50;99.90
780;DHT22;373;49.342;8.146;2023-11-21T12:00:12;11.70;99.90
780;DHT22;373;49.342;8.146;2023-11-21T12:02:42;11.80;99.90
780;DHT22;373;49.342;8.146;2023-11-21T12:05:11;11.90;99.90
780;DHT22;373;49.342;8.146;2023-11-21T12:07:50;12.10;99.90
780;DHT22;373;49.342;8.146;2023-11-21T12:10:22;12.10;95.30
780;DHT22;373;49.342;8.146;2023-11-21T12:12:51;12.20;27.00
780;DHT22;373;49.342;8.146;2023-11-21T12:15:19;12.40;56.60
780;DHT22;373;49.342;8.146;2023-11-21T12:17:47;12.30;57.30
780;DHT22;373;49.342;8.146;2023-11-21T12:20:17;12.30;29.00
780;DHT22;373;49.342;8.146;2023-11-21T12:22:46;12.20;45.50
780;DHT22;373;49.342;8.146;2023-11-21T12:25:14;12.20;53.00
780;DHT22;373;49.342;8.146;2023-11-21T12:27:46;12.30;69.50
780;DHT22;373;49.342;8.146;2023-11-21T12:30:16;12.50;48.50
780;DHT22;373;49.342;8.146;2023-11-21T12:32:44;12.60;7.10
780;DHT22;373;49.342;8.146;2023-11-21T12:35:13;12.80;1.00
780;DHT22;373;49.342;8.146;2023-11-21T12:37:41;13.20;1.00
780;DHT22;373;49.342;8.146;2023-11-21T12:40:10;13.30;1.00
780;DHT22;373;49.342;8.146;2023-11-21T12:42:39;13.70;1.00
780;DHT22;373;49.342;8.146;2023-11-21T12:45:19;13.90;1.00
780;DHT22;373;49.342;8.146;2023-11-21T12:47:47;14.10;99.90
780;DHT22;373;49.342;8.146;2023-11-21T12:50:15;13.90;1.00
780;DHT22;373;49.342;8.146;2023-11-21T12:52:43;13.50;1.00
780;DHT22;373;49.342;8.146;2023-11-21T12:55:15;13.40;1.00
780;DHT22;373;49.342;8.146;2023-11-21T12:57:43;13.30;99.90
780;DHT22;373;49.342;8.146;2023-11-21T13:00:13;13.30;99.90
780;DHT22;373;49.342;8.146;2023-11-21T13:02:55;13.10;1.00
780;DHT22;373;49.342;8.146;2023-11-21T13:05:28;12.80;1.00
780;DHT22;373;49.342;8.146;2023-11-21T13:08:01;12.70;1.00
780;DHT22;373;49.342;8.146;2023-11-21T13:10:34;12.60;1.00
780;DHT22;373;49.342;8.146;2023-11-21T13:13:04;12.50;1.00
780;DHT22;373;49.342;8.146;2023-11-21T13:15:38;12.60;1.00
780;DHT22;373;49.342;8.146;2023-11-21T13:18:06;12.70;1.00
780;DHT22;373;49.342;8.146;2023-11-21T13:20:36;12.50;1.00
780;DHT22;373;49.342;8.146;2023-11-21T13:23:07;12.60;1.00
780;DHT22;373;49.342;8.146;2023-11-21T13:25:36;12.50;1.00
780;DHT22;373;49.342;8.146;2023-11-21T13:28:04;12.50;1.00
780;DHT22;373;49.342;8.146;2023-11-21T13:30:32;12.50;1.00
780;DHT22;373;49.342;8.146;2023-11-21T13:33:02;12.60;1.00
780;DHT22;373;49.342;8.146;2023-11-21T13:35:34;12.80;1.00
780;DHT22;373;49.342;8.146;2023-11-21T13:38:05;12.90;1.00
780;DHT22;373;49.342;8.146;2023-11-21T13:40:33;12.80;1.00
780;DHT22;373;49.342;8.146;2023-11-21T13:43:08;12.90;1.00
780;DHT22;373;49.342;8.146;2023-11-21T13:45:35;13.00;1.00
780;DHT22;373;49.342;8.146;2023-11-21T13:48:07;13.20;1.00
780;DHT22;373;49.342;8.146;2023-11-21T13:50:36;13.20;1.00
780;DHT22;373;49.342;8.146;2023-11-21T13:53:03;12.90;1.00
780;DHT22;373;49.342;8.146;2023-11-21T13:55:44;13.30;1.00
780;DHT22;373;49.342;8.146;2023-11-21T13:58:11;13.10;1.00
780;DHT22;373;49.342;8.146;2023-11-21T14:00:44;12.90;1.00
780;DHT22;373;49.342;8.146;2023-11-21T14:03:13;12.70;99.90
780;DHT22;373;49.342;8.146;2023-11-21T14:05:46;12.70;99.90
780;DHT22;373;49.342;8.146;2023-11-21T14:08:18;12.50;1.00
780;DHT22;373;49.342;8.146;2023-11-21T14:10:46;12.70;1.00
780;DHT22;373;49.342;8.146;2023-11-21T14:13:17;12.70;99.90
780;DHT22;373;49.342;8.146;2023-11-21T14:15:44;12.90;99.90
780;DHT22;373;49.342;8.146;2023-11-21T14:18:18;12.70;1.00
780;DHT22;373;49.342;8.146;2023-11-21T14:20:53;12.70;99.90
780;DHT22;373;49.342;8.146;2023-11-21T14:23:20;12.70;99.90
780;DHT22;373;49.342;8.146;2023-11-21T14:25:49;12.90;99.90
780;DHT22;373;49.342;8.146;2023-11-21T14:28:16;12.70;99.90
780;DHT22;373;49.342;8.146;2023-11-21T14:30:45;12.60;99.90
780;DHT22;373;49.342;8.146;2023-11-21T14:33:12;12.60;1.00
780;DHT22;373;49.342;8.146;2023-11-21T14:35:40;12.50;99.90
780;DHT22;373;49.342;8.146;2023-11-21T14:38:08;12.50;1.00
780;DHT22;373;49.342;8.146;2023-11-21T14:40:36;12.50;99.90
780;DHT22;373;49.342;8.146;2023-11-21T14:43:03;12.50;1.00
780;DHT22;373;49.342;8.146;2023-11-21T14:45:32;12.40;1.00
780;DHT22;373;49.342;8.146;2023-11-21T14:47:59;12.70;1.00
780;DHT22;373;49.342;8.146;2023-11-21T14:50:33;12.90;99.90
780;DHT22;373;49.342;8.146;2023-11-21T14:53:24;12.70;1.00
780;DHT22;373;49.342;8.146;2023-11-21T14:56:09;12.50;99.90
780;DHT22;373;49.342;8.146;2023-11-21T14:58:35;12.40;1.00
780;DHT22;373;49.342;8.146;2023-11-21T15:01:04;12.30;1.00
780;DHT22;373;49.342;8.146;2023-11-21T15:03:31;12.10;1.00
780;DHT22;373;49.342;8.146;2023-11-21T15:06:12;12.20;1.00
780;DHT22;373;49.342;8.146;2023-11-21T15:08:54;12.20;1.00
780;DHT22;373;49.342;8.146;2023-11-21T15:11:43;12.30;1.00
780;DHT22;373;49.342;8.146;2023-11-21T15:14:09;12.40;1.00
780;DHT22;373;49.342;8.146;2023-11-21T15:16:41;12.50;1.00
780;DHT22;373;49.342;8.146;2023-11-21T15:19:11;12.20;99.90
780;DHT22;373;49.342;8.146;2023-11-21T15:21:43;12.30;1.00
780;DHT22;373;49.342;8.146;2023-11-21T15:24:13;12.30;1.00
780;DHT22;373;49.342;8.146;2023-11-21T15:26:40;12.30;1.00
780;DHT22;373;49.342;8.146;2023-11-21T15:29:07;12.10;1.00
780;DHT22;373;49.342;8.146;2023-11-21T15:31:34;12.10;1.00
780;DHT22;373;49.342;8.146;2023-11-21T15:34:02;11.90;1.00
780;DHT22;373;49.342;8.146;2023-11-21T15:36:32;11.90;1.00
780;DHT22;373;49.342;8.146;2023-11-21T15:38:59;11.70;1.00
780;DHT22;373;49.342;8.146;2023-11-21T15:41:28;11.70;1.00
780;DHT22;373;49.342;8.146;2023-11-21T15:43:55;11.70;1.00
780;DHT22;373;49.342;8.146;2023-11-21T15:46:22;11.70;1.00
780;DHT22;373;49.342;8.146;2023-11-21T15:48:49;11.80;1.00
780;DHT22;373;49.342;8.146;2023-11-21T15:51:20;11.80;1.00
780;DHT22;373;49.342;8.146;2023-11-21T15:53:47;11.70;1.00
780;DHT22;373;49.342;8.146;2023-11-21T15:56:14;11.40;1.00
780;DHT22;373;49.342;8.146;2023-11-21T15:58:44;11.50;1.00
780;DHT22;373;49.342;8.146;2023-11-21T16:01:12;11.60;1.00
780;DHT22;373;49.342;8.146;2023-11-21T16:03:39;11.70;1.00
780;DHT22;373;49.342;8.146;2023-11-21T16:06:07;11.90;1.00
780;DHT22;373;49.342;8.146;2023-11-21T16:08:36;11.70;1.00
780;DHT22;373;49.342;8.146;2023-11-21T16:11:04;11.60;1.00
780;DHT22;373;49.342;8.146;2023-11-21T16:13:31;11.50;1.00
780;DHT22;373;49.342;8.146;2023-11-21T16:16:01;11.70;1.00
780;DHT22;373;49.342;8.146;2023-11-21T16:18:28;11.70;1.00
780;DHT22;373;49.342;8.146;2023-11-21T16:20:55;11.60;1.00
780;DHT22;373;49.342;8.146;2023-11-21T16:23:21;11.50;1.00
780;DHT22;373;49.342;8.146;2023-11-21T16:25:48;11.10;1.00
780;DHT22;373;49.342;8.146;2023-11-21T16:30:48;10.90;1.00
780;DHT22;373;49.342;8.146;2023-11-21T16:33:17;10.90;1.00
780;DHT22;373;49.342;8.146;2023-11-21T16:35:45;10.90;1.00
780;DHT22;373;49.342;8.146;2023-11-21T16:38:13;10.90;1.00
780;DHT22;373;49.342;8.146;2023-11-21T16:40:41;10.90;1.00
780;DHT22;373;49.342;8.146;2023-11-21T16:43:10;11.10;1.00
780;DHT22;373;49.342;8.146;2023-11-21T16:45:38;11.10;1.00
780;DHT22;373;49.342;8.146;2023-11-21T16:48:05;11.00;1.00
780;DHT22;373;49.342;8.146;2023-11-21T16:50:35;10.90;1.00
780;DHT22;373;49.342;8.146;2023-11-21T16:53:02;10.90;1.00
780;DHT22;373;49.342;8.146;2023-11-21T16:55:29;10.90;1.00
780;DHT22;373;49.342;8.146;2023-11-21T16:57:56;10.90;1.00
780;DHT22;373;49.342;8.146;2023-11-21T17:00:23;10.90;1.00
780;DHT22;373;49.342;8.146;2023-11-21T17:02:50;10.90;1.00
780;DHT22;373;49.342;8.146;2023-11-21T17:05:17;10.80;1.00
780;DHT22;373;49.342;8.146;2023-11-21T17:07:47;10.90;1.00
780;DHT22;373;49.342;8.146;2023-11-21T17:10:14;10.80;1.00
780;DHT22;373;49.342;8.146;2023-11-21T17:12:42;10.70;3.30
780;DHT22;373;49.342;8.146;2023-11-21T17:15:09;10.90;1.00
780;DHT22;373;49.342;8.146;2023-11-21T17:17:37;10.80;1.00
780;DHT22;373;49.342;8.146;2023-11-21T17:20:06;10.80;1.10
780;DHT22;373;49.342;8.146;2023-11-21T17:22:37;10.60;1.00
780;DHT22;373;49.342;8.146;2023-11-21T17:25:08;10.70;6.00
780;DHT22;373;49.342;8.146;2023-11-21T17:27:36;10.60;21.60
780;DHT22;373;49.342;8.146;2023-11-21T17:30:03;10.60;23.60
780;DHT22;373;49.342;8.146;2023-11-21T17:32:31;10.60;23.00
780;DHT22;373;49.342;8.146;2023-11-21T17:34:58;10.70;17.50
780;DHT22;373;49.342;8.146;2023-11-21T17:37:26;10.80;9.80
780;DHT22;373;49.342;8.146;2023-11-21T17:39:53;10.80;1.00
780;DHT22;373;49.342;8.146;2023-11-21T17:42:22;10.70;1.00
780;DHT22;373;49.342;8.146;2023-11-21T17:44:49;10.60;3.60
780;DHT22;373;49.342;8.146;2023-11-21T17:47:16;10.70;1.00
780;DHT22;373;49.342;8.146;2023-11-21T17:49:44;10.60;1.00
780;DHT22;373;49.342;8.146;2023-11-21T17:52:12;10.60;15.70
780;DHT22;373;49.342;8.146;2023-11-21T17:54:39;10.70;12.20
780;DHT22;373;49.342;8.146;2023-11-21T17:57:07;10.60;9.40
780;DHT22;373;49.342;8.146;2023-11-21T17:59:38;10.60;17.00
780;DHT22;373;49.342;8.146;2023-11-21T18:02:06;10.50;34.40
780;DHT22;373;49.342;8.146;2023-11-21T18:04:33;10.60;23.40
780;DHT22;373;49.342;8.146;2023-11-21T18:07:01;10.50;22.50
780;DHT22;373;49.342;8.146;2023-11-21T18:09:30;10.60;31.70
780;DHT22;373;49.342;8.146;2023-11-21T18:11:57;10.70;6.70
780;DHT22;373;49.342;8.146;2023-11-21T18:14:24;10.60;16.10
780;DHT22;373;49.342;8.146;2023-11-21T18:16:52;10.60;12.90
780;DHT22;373;49.342;8.146;2023-11-21T18:19:19;10.60;30.20
780;DHT22;373;49.342;8.146;2023-11-21T18:21:46;10.60;7.20
780;DHT22;373;49.342;8.146;2023-11-21T18:24:13;10.60;1.00
780;DHT22;373;49.342;8.146;2023-11-21T18:26:40;10.80;1.00
780;DHT22;373;49.342;8.146;2023-11-21T18:29:07;10.70;1.00
780;DHT22;373;49.342;8.146;2023-11-21T18:31:35;10.70;1.00
780;DHT22;373;49.342;8.146;2023-11-21T18:34:04;10.70;2.50
780;DHT22;373;49.342;8.146;2023-11-21T18:36:32;10.80;1.00
780;DHT22;373;49.342;8.146;2023-11-21T18:38:59;10.90;1.00
780;DHT22;373;49.342;8.146;2023-11-21T18:41:26;10.90;1.00
780;DHT22;373;49.342;8.146;2023-11-21T18:43:53;11.00;1.00
780;DHT22;373;49.342;8.146;2023-11-21T18:46:21;11.00;1.00
780;DHT22;373;49.342;8.146;2023-11-21T18:48:48;11.00;1.00
780;DHT22;373;49.342;8.146;2023-11-21T18:51:16;11.00;1.00
780;DHT22;373;49.342;8.146;2023-11-21T18:53:43;10.90;4.70
780;DHT22;373;49.342;8.146;2023-11-21T18:56:18;11.00;9.80
780;DHT22;373;49.342;8.146;2023-11-21T18:58:46;11.00;25.20
780;DHT22;373;49.342;8.146;2023-11-21T19:01:24;11.00;3.60
780;DHT22;373;49.342;8.146;2023-11-21T19:03:51;11.30;1.00
780;DHT22;373;49.342;8.146;2023-11-21T19:06:20;11.60;1.00
780;DHT22;373;49.342;8.146;2023-11-21T19:08:47;11.80;1.00
780;DHT22;373;49.342;8.146;2023-11-21T19:11:14;11.70;1.00
780;DHT22;373;49.342;8.146;2023-11-21T19:13:41;11.60;1.00
780;DHT22;373;49.342;8.146;2023-11-21T19:16:08;11.40;1.00
780;DHT22;373;49.342;8.146;2023-11-21T19:18:36;11.20;1.00
780;DHT22;373;49.342;8.146;2023-11-21T19:21:04;11.20;1.00
780;DHT22;373;49.342;8.146;2023-11-21T19:23:32;11.20;1.00
780;DHT22;373;49.342;8.146;2023-11-21T19:25:59;11.30;1.00
780;DHT22;373;49.342;8.146;2023-11-21T19:28:26;11.50;1.00
780;DHT22;373;49.342;8.146;2023-11-21T19:30:53;11.60;1.00
780;DHT22;373;49.342;8.146;2023-11-21T19:33:21;11.70;1.00
780;DHT22;373;49.342;8.146;2023-11-21T19:35:50;11.50;1.00
780;DHT22;373;49.342;8.146;2023-11-21T19:38:17;11.60;1.00
780;DHT22;373;49.342;8.146;2023-11-21T19:40:46;11.30;1.00
780;DHT22;373;49.342;8.146;2023-11-21T19:43:13;11.20;1.00
780;DHT22;373;49.342;8.146;2023-11-21T19:45:41;11.10;1.00
780;DHT22;373;49.342;8.146;2023-11-21T19:48:08;11.10;1.00
780;DHT22;373;49.342;8.146;2023-11-21T19:50:35;10.90;5.30
780;DHT22;373;49.342;8.146;2023-11-21T19:53:02;10.70;29.50
780;DHT22;373;49.342;8.146;2023-11-21T19:55:29;10.70;62.90
780;DHT22;373;49.342;8.146;2023-11-21T19:57:58;10.70;63.90
780;DHT22;373;49.342;8.146;2023-11-21T20:00:28;10.70;45.70
780;DHT22;373;49.342;8.146;2023-11-21T20:02:55;10.70;61.20
780;DHT22;373;49.342;8.146;2023-11-21T20:05:22;10.70;35.40
780;DHT22;373;49.342;8.146;2023-11-21T20:07:49;10.70;45.30
780;DHT22;373;49.342;8.146;2023-11-21T20:10:16;10.60;64.80
780;DHT22;373;49.342;8.146;2023-11-21T20:12:44;10.70;54.00
780;DHT22;373;49.342;8.146;2023-11-21T20:15:12;10.80;26.40
780;DHT22;373;49.342;8.146;2023-11-21T20:17:39;10.80;33.90
780;DHT22;373;49.342;8.146;2023-11-21T20:20:12;10.70;43.30
780;DHT22;373;49.342;8.146;2023-11-21T20:22:42;10.70;54.00
780;DHT22;373;49.342;8.146;2023-11-21T20:25:12;10.60;56.70
780;DHT22;373;49.342;8.146;2023-11-21T20:27:39;10.50;91.00
780;DHT22;373;49.342;8.146;2023-11-21T20:30:07;10.60;83.80
780;DHT22;373;49.342;8.146;2023-11-21T20:32:36;10.60;86.80
780;DHT22;373;49.342;8.146;2023-11-21T20:35:04;10.40;41.10
780;DHT22;373;49.342;8.146;2023-11-21T20:37:31;10.50;8.90
780;DHT22;373;49.342;8.146;2023-11-21T20:40:00;10.60;6.80
780;DHT22;373;49.342;8.146;2023-11-21T20:42:29;10.70;28.80
780;DHT22;373;49.342;8.146;2023-11-21T20:44:57;10.50;3.30
780;DHT22;373;49.342;8.146;2023-11-21T20:47:24;10.50;20.10
780;DHT22;373;49.342;8.146;2023-11-21T20:49:53;10.50;31.10
780;DHT22;373;49.342;8.146;2023-11-21T20:52:24;10.60;12.60
780;DHT22;373;49.342;8.146;2023-11-21T20:54:51;10.50;18.10
780;DHT22;373;49.342;8.146;2023-11-21T20:57:18;10.50;36.30
780;DHT22;373;49.342;8.146;2023-11-21T20:59:45;10.50;30.00
780;DHT22;373;49.342;8.146;2023-11-21T21:02:14;10.50;29.50
780;DHT22;373;49.342;8.146;2023-11-21T21:04:41;10.60;20.70
780;DHT22;373;49.342;8.146;2023-11-21T21:07:10;10.60;24.20
780;DHT22;373;49.342;8.146;2023-11-21T21:09:37;10.60;19.50
780;DHT22;373;49.342;8.146;2023-11-21T21:12:05;10.60;29.60
780;DHT22;373;49.342;8.146;2023-11-21T21:14:33;10.60;32.70
780;DHT22;373;49.342;8.146;2023-11-21T21:17:00;10.50;48.70
780;DHT22;373;49.342;8.146;2023-11-21T21:19:27;10.40;62.40
780;DHT22;373;49.342;8.146;2023-11-21T21:21:54;10.40;99.90
780;DHT22;373;49.342;8.146;2023-11-21T21:24:22;10.10;99.90
780;DHT22;373;49.342;8.146;2023-11-21T21:26:50;9.80;99.90
780;DHT22;373;49.342;8.146;2023-11-21T21:29:17;9.50;99.90
780;DHT22;373;49.342;8.146;2023-11-21T21:31:46;9.40;99.90
780;DHT22;373;49.342;8.146;2023-11-21T21:34:13;9.30;99.90
780;DHT22;373;49.342;8.146;2023-11-21T21:36:41;9.10;99.90
780;DHT22;373;49.342;8.146;2023-11-21T21:39:08;9.00;99.90
780;DHT22;373;49.342;8.146;2023-11-21T21:41:37;8.80;99.90
780;DHT22;373;49.342;8.146;2023-11-21T21:44:04;8.80;99.90
780;DHT22;373;49.342;8.146;2023-11-21T21:46:32;8.80;99.90
780;DHT22;373;49.342;8.146;2023-11-21T21:48:59;8.80;99.90
780;DHT22;373;49.342;8.146;2023-11-21T21:51:29;8.70;99.90
780;DHT22;373;49.342;8.146;2023-11-21T21:53:57;8.70;99.90
780;DHT22;373;49.342;8.146;2023-11-21T21:56:24;8.50;99.90
780;DHT22;373;49.342;8.146;2023-11-21T21:58:54;8.50;99.90
780;DHT22;373;49.342;8.146;2023-11-21T22:01:22;8.40;99.90
780;DHT22;373;49.342;8.146;2023-11-21T22:03:50;8.40;99.90
780;DHT22;373;49.342;8.146;2023-11-21T22:06:18;8.20;99.90
780;DHT22;373;49.342;8.146;2023-11-21T22:08:45;8.20;99.90